createdAt,value
2019-04-16T00:00:32.423Z,20.01
2019-04-16T00:02:59.668Z,20.01
2019-04-16T00:05:34.491Z,20.00
2019-04-16T00:08:27.651Z,20.00
2019-04-16T00:11:00.926Z,20.01
2019-04-16T00:13:35.550Z,20.01
2019-04-16T00:16:02.640Z,20.02
2019-04-16T00:18:29.619Z,20.02
2019-04-16T00:21:10.760Z,20.01
2019-04-16T00:23:39.649Z,20.02
2019-04-16T00:26:07.734Z,20.01
2019-04-16T00:28:34.684Z,20.01
2019-04-16T00:31:04.668Z,20.01
2019-04-16T00:33:30.638Z,20.01
2019-04-16T00:35:57.722Z,20.01
2019-04-16T00:38:24.716Z,18.13
2019-04-16T00:40:52.317Z,20.01
2019-04-16T00:43:19.330Z,20.01
2019-04-16T00:45:46.567Z,20.01
2019-04-16T00:48:13.642Z,20.01
2019-04-16T00:50:42.886Z,20.01
2019-04-16T00:53:09.964Z,20.01
2019-04-16T00:55:42.318Z,20.01
2019-04-16T00:58:08.571Z,20.02
2019-04-16T01:00:35.934Z,20.02
2019-04-16T01:03:02.964Z,20.01
2019-04-16T01:05:30.028Z,20.01
2019-04-16T01:07:57.048Z,20.01
2019-04-16T01:10:23.949Z,20.01
2019-04-16T01:12:51.013Z,20.01
2019-04-16T01:15:18.176Z,20.01
2019-04-16T01:17:45.165Z,20.02
2019-04-16T01:20:13.105Z,20.02
2019-04-16T01:22:40.133Z,20.02
2019-04-16T01:25:07.085Z,20.02
2019-04-16T01:27:35.767Z,20.03
2019-04-16T01:30:05.936Z,20.02
2019-04-16T01:32:35.947Z,20.02
2019-04-16T01:35:07.511Z,20.02
2019-04-16T01:37:42.195Z,20.03
2019-04-16T01:40:18.439Z,20.02
2019-04-16T01:42:42.350Z,20.03
2019-04-16T01:45:09.269Z,20.03
2019-04-16T01:47:37.249Z,20.03
2019-04-16T01:50:04.983Z,20.02
2019-04-16T01:52:31.919Z,20.02
2019-04-16T01:54:58.826Z,20.03
2019-04-16T01:57:28.329Z,20.02
2019-04-16T01:59:54.440Z,20.01
2019-04-16T02:02:21.335Z,20.01
2019-04-16T02:04:48.466Z,20.02
2019-04-16T02:07:16.812Z,20.02
2019-04-16T02:09:43.722Z,20.02
2019-04-16T02:12:13.226Z,20.03
2019-04-16T02:14:39.250Z,20.02
2019-04-16T02:17:06.167Z,20.03
2019-04-16T02:19:33.619Z,20.01
2019-04-16T02:22:00.617Z,20.02
2019-04-16T02:24:27.572Z,20.01
2019-04-16T02:26:55.019Z,20.02
2019-04-16T02:29:22.523Z,20.01
2019-04-16T02:31:51.501Z,20.02
2019-04-16T02:34:18.079Z,20.01
2019-04-16T02:36:44.995Z,20.01
2019-04-16T02:39:11.983Z,20.01
2019-04-16T02:41:39.110Z,20.01
2019-04-16T02:44:06.008Z,20.01
2019-04-16T02:46:32.946Z,20.01
2019-04-16T02:48:59.895Z,20.01
2019-04-16T02:51:31.217Z,20.01
2019-04-16T02:54:05.752Z,20.01
2019-04-16T02:56:52.044Z,20.01
2019-04-16T02:59:20.766Z,20.00
2019-04-16T03:02:05.650Z,20.01
2019-04-16T03:04:34.190Z,20.01
2019-04-16T03:07:03.306Z,20.01
2019-04-16T03:09:29.764Z,19.99
2019-04-16T03:11:56.729Z,20.00
2019-04-16T03:14:23.643Z,20.00
2019-04-16T03:16:52.195Z,20.01
2019-04-16T03:19:23.490Z,20.00
2019-04-16T03:21:50.399Z,20.01
2019-04-16T03:24:17.363Z,20.00
2019-04-16T03:26:44.438Z,20.00
2019-04-16T03:29:11.505Z,19.99
2019-04-16T03:31:38.414Z,20.00
2019-04-16T03:34:05.415Z,20.00
2019-04-16T03:36:32.327Z,20.00
2019-04-16T03:38:59.191Z,20.00
2019-04-16T03:41:30.246Z,20.01
2019-04-16T03:43:57.210Z,20.01
2019-04-16T03:46:24.181Z,20.00
2019-04-16T03:48:52.536Z,20.00
2019-04-16T03:51:19.730Z,20.00
2019-04-16T03:53:49.481Z,20.00
2019-04-16T03:56:15.193Z,20.00
2019-04-16T03:58:43.164Z,20.00
2019-04-16T04:01:10.108Z,19.99
2019-04-16T04:03:37.130Z,20.00
2019-04-16T04:06:06.977Z,20.00
2019-04-16T04:08:32.632Z,20.00
2019-04-16T04:10:59.643Z,19.76
2019-04-16T04:13:26.802Z,20.00
2019-04-16T04:15:55.191Z,20.00
2019-04-16T04:18:22.471Z,19.99
2019-04-16T04:20:50.620Z,19.99
2019-04-16T04:23:17.871Z,19.99
2019-04-16T04:25:44.850Z,19.99
2019-04-16T04:28:11.755Z,19.99
2019-04-16T04:30:38.666Z,19.98
2019-04-16T04:33:08.890Z,19.98
2019-04-16T04:35:34.181Z,19.99
2019-04-16T04:38:04.154Z,19.99
2019-04-16T04:40:43.471Z,20.00
2019-04-16T04:43:00.778Z,19.99
2019-04-16T04:45:26.918Z,19.99
2019-04-16T04:47:54.144Z,19.98
2019-04-16T04:50:21.037Z,19.98
2019-04-16T04:52:47.983Z,19.98
2019-04-16T04:55:14.904Z,19.98
2019-04-16T04:57:41.861Z,19.99
2019-04-16T05:00:09.543Z,19.98
2019-04-16T05:02:36.947Z,19.99
2019-04-16T05:05:05.560Z,19.98
2019-04-16T05:07:32.503Z,19.97
2019-04-16T05:09:59.420Z,19.98
2019-04-16T05:12:26.453Z,19.97
2019-04-16T05:14:57.096Z,19.97
2019-04-16T05:17:24.283Z,19.97
2019-04-16T05:19:51.199Z,19.96
2019-04-16T05:22:20.601Z,19.97
2019-04-16T05:24:46.735Z,19.96
2019-04-16T05:27:13.701Z,19.97
2019-04-16T05:29:40.612Z,19.96
2019-04-16T05:32:07.557Z,19.97
2019-04-16T05:34:34.636Z,19.96
2019-04-16T05:37:03.045Z,19.96
2019-04-16T05:39:30.000Z,19.96
2019-04-16T05:41:56.920Z,19.96
2019-04-16T05:44:23.952Z,19.96
2019-04-16T05:46:50.884Z,19.96
2019-04-16T05:49:17.808Z,19.96
2019-04-16T05:51:44.778Z,19.95
2019-04-16T05:54:13.648Z,19.96
2019-04-16T05:56:42.204Z,19.96
2019-04-16T05:59:09.243Z,19.96
2019-04-16T06:01:37.811Z,19.96
2019-04-16T06:04:04.779Z,19.96
2019-04-16T06:06:32.471Z,19.95
2019-04-16T06:08:59.616Z,19.95
2019-04-16T06:11:29.131Z,19.95
2019-04-16T06:13:59.400Z,19.95
2019-04-16T06:16:43.256Z,19.95
2019-04-16T06:19:20.909Z,19.95
2019-04-16T06:22:04.733Z,19.95
2019-04-16T06:24:40.142Z,19.95
2019-04-16T06:27:25.561Z,19.95
2019-04-16T06:29:54.140Z,19.94
2019-04-16T06:32:28.989Z,19.95
2019-04-16T06:34:57.585Z,19.95
2019-04-16T06:37:27.359Z,19.95
2019-04-16T06:40:00.912Z,19.95
2019-04-16T06:42:32.761Z,19.94
2019-04-16T06:45:01.643Z,19.89
2019-04-16T06:47:41.773Z,19.85
2019-04-16T06:50:31.108Z,19.84
2019-04-16T06:52:49.906Z,19.87
2019-04-16T06:55:27.333Z,19.83
2019-04-16T06:58:16.657Z,19.83
2019-04-16T07:00:50.403Z,19.85
2019-04-16T07:03:27.020Z,19.24
2019-04-16T07:06:04.783Z,18.27
2019-04-16T07:08:49.811Z,17.92
2019-04-16T07:11:15.839Z,17.89
2019-04-16T07:13:43.056Z,17.90
2019-04-16T07:16:10.467Z,17.62
2019-04-16T07:18:38.523Z,17.54
2019-04-16T07:21:05.961Z,17.36
2019-04-16T07:23:32.921Z,17.58
2019-04-16T07:26:03.296Z,17.62
2019-04-16T07:28:30.005Z,17.74
2019-04-16T07:31:01.544Z,17.74
2019-04-16T07:33:46.318Z,17.77
2019-04-16T07:36:27.908Z,17.65
2019-04-16T07:38:59.381Z,17.65
2019-04-16T07:41:27.920Z,17.77
2019-04-16T07:44:08.116Z,17.72
2019-04-16T07:46:49.148Z,17.79
2019-04-16T07:49:29.931Z,17.79
2019-04-16T07:52:12.317Z,17.68
2019-04-16T07:54:55.993Z,17.51
2019-04-16T07:57:23.012Z,17.58
2019-04-16T07:59:49.915Z,17.56
2019-04-16T08:02:17.667Z,17.55
2019-04-16T08:04:45.425Z,17.58
2019-04-16T08:07:12.400Z,17.76
2019-04-16T08:09:39.491Z,17.62
2019-04-16T08:12:10.566Z,17.58
2019-04-16T08:14:35.187Z,17.58
2019-04-16T08:17:02.129Z,17.64
2019-04-16T08:19:36.849Z,17.72
2019-04-16T08:21:57.701Z,17.82
2019-04-16T08:24:26.315Z,17.79
2019-04-16T08:26:54.466Z,17.80
2019-04-16T08:29:21.572Z,17.76
2019-04-16T08:31:49.455Z,17.74
2019-04-16T08:34:16.554Z,17.81
2019-04-16T08:36:43.624Z,17.68
2019-04-16T08:39:12.222Z,17.72
2019-04-16T08:41:39.175Z,17.59
2019-04-16T08:44:09.388Z,17.64
2019-04-16T08:46:35.039Z,17.73
2019-04-16T08:49:02.031Z,18.10
2019-04-16T08:51:31.243Z,18.33
2019-04-16T08:53:57.580Z,18.49
2019-04-16T08:56:24.501Z,18.58
2019-04-16T08:58:51.436Z,18.65
2019-04-16T09:01:23.314Z,18.71
2019-04-16T09:03:48.804Z,18.73
2019-04-16T09:06:15.889Z,18.74
2019-04-16T09:08:44.473Z,18.75
2019-04-16T09:11:22.326Z,18.77
2019-04-16T09:13:44.437Z,18.78
2019-04-16T09:16:12.784Z,18.79
2019-04-16T09:18:59.852Z,18.81
2019-04-16T09:21:28.141Z,18.82
2019-04-16T09:24:13.267Z,18.84
2019-04-16T09:26:47.844Z,18.84
2019-04-16T09:29:25.267Z,18.86
2019-04-16T09:32:10.443Z,18.88
2019-04-16T09:35:08.088Z,18.89
2019-04-16T09:37:29.319Z,18.90
2019-04-16T09:40:17.687Z,18.92
2019-04-16T09:42:43.119Z,18.93
2019-04-16T09:45:11.668Z,18.94
2019-04-16T09:47:38.610Z,18.96
2019-04-16T09:50:09.781Z,18.95
2019-04-16T09:52:34.087Z,18.97
2019-04-16T09:55:01.005Z,18.97
2019-04-16T09:57:30.925Z,18.98
2019-04-16T09:59:58.119Z,18.99
2019-04-16T10:02:26.705Z,18.99
2019-04-16T10:04:53.618Z,19.01
2019-04-16T10:07:20.515Z,19.01
2019-04-16T10:09:47.430Z,19.03
2019-04-16T10:12:14.381Z,18.14
2019-04-16T10:14:41.250Z,19.03
2019-04-16T10:17:08.165Z,19.05
2019-04-16T10:19:35.098Z,19.05
2019-04-16T10:22:02.001Z,19.05
2019-04-16T10:24:47.064Z,19.06
2019-04-16T10:27:15.622Z,19.07
2019-04-16T10:29:42.543Z,19.07
2019-04-16T10:32:09.511Z,19.08
2019-04-16T10:34:36.556Z,19.08
2019-04-16T10:37:03.529Z,19.08
2019-04-16T10:39:35.108Z,19.09
2019-04-16T10:42:03.687Z,19.10
2019-04-16T10:44:48.426Z,19.09
2019-04-16T10:47:19.902Z,19.10
2019-04-16T10:49:47.214Z,19.11
2019-04-16T10:52:18.603Z,19.10
2019-04-16T10:54:47.191Z,19.11
2019-04-16T10:57:32.064Z,19.12
2019-04-16T11:00:16.927Z,19.12
2019-04-16T11:02:54.302Z,19.13
2019-04-16T11:05:23.019Z,19.12
2019-04-16T11:07:51.614Z,19.13
2019-04-16T11:10:18.540Z,19.14
2019-04-16T11:12:45.460Z,19.14
2019-04-16T11:15:14.939Z,19.14
2019-04-16T11:17:41.865Z,19.19
2019-04-16T11:20:08.747Z,19.23
2019-04-16T11:22:35.700Z,19.25
2019-04-16T11:25:03.049Z,19.30
2019-04-16T11:27:30.068Z,19.34
2019-04-16T11:29:57.071Z,19.32
2019-04-16T11:32:25.631Z,19.29
2019-04-16T11:34:52.543Z,19.27
2019-04-16T11:37:19.494Z,19.25
2019-04-16T11:39:46.486Z,19.25
2019-04-16T11:42:13.383Z,19.24
2019-04-16T11:44:41.228Z,19.25
2019-04-16T11:47:08.271Z,19.25
2019-04-16T11:49:35.224Z,19.25
2019-04-16T11:52:02.203Z,19.29
2019-04-16T11:54:29.124Z,19.23
2019-04-16T11:56:59.447Z,19.32
2019-04-16T11:59:24.669Z,19.31
2019-04-16T12:02:09.891Z,19.30
2019-04-16T12:04:59.065Z,19.31
2019-04-16T12:07:25.602Z,19.30
2019-04-16T12:09:57.098Z,19.32
2019-04-16T12:12:37.988Z,19.31
2019-04-16T12:15:09.620Z,19.32
2019-04-16T12:17:47.232Z,19.33
2019-04-16T12:20:32.299Z,19.32
2019-04-16T12:23:06.645Z,19.33
2019-04-16T12:25:51.749Z,19.34
2019-04-16T12:28:23.473Z,19.34
2019-04-16T12:30:52.038Z,19.35
2019-04-16T12:33:20.598Z,19.35
2019-04-16T12:36:05.788Z,19.37
2019-04-16T12:38:50.690Z,19.38
2019-04-16T12:41:22.019Z,19.38
2019-04-16T12:43:56.566Z,19.39
2019-04-16T12:46:25.127Z,19.39
2019-04-16T12:48:56.584Z,19.39
2019-04-16T12:51:28.144Z,19.40
2019-04-16T12:54:05.761Z,19.40
2019-04-16T12:56:50.654Z,19.41
2019-04-16T12:59:22.058Z,19.41
2019-04-16T13:01:52.301Z,19.41
2019-04-16T13:04:20.875Z,19.43
2019-04-16T13:06:55.665Z,19.43
2019-04-16T13:09:24.217Z,19.42
2019-04-16T13:11:55.744Z,19.43
2019-04-16T13:14:30.452Z,19.43
2019-04-16T13:16:59.162Z,19.44
2019-04-16T13:19:45.967Z,19.44
2019-04-16T13:22:23.387Z,19.45
2019-04-16T13:24:51.968Z,19.47
2019-04-16T13:27:20.555Z,19.46
2019-04-16T13:29:47.464Z,19.46
2019-04-16T13:32:14.433Z,19.47
2019-04-16T13:34:41.355Z,19.47
2019-04-16T13:37:08.549Z,19.48
2019-04-16T13:39:40.065Z,19.47
2019-04-16T13:42:05.736Z,19.49
2019-04-16T13:44:37.686Z,19.50
2019-04-16T13:47:05.625Z,19.49
2019-04-16T13:49:34.206Z,19.50
2019-04-16T13:52:01.147Z,19.50
2019-04-16T13:54:46.064Z,19.50
2019-04-16T13:57:17.324Z,19.51
2019-04-16T14:00:04.698Z,19.51
2019-04-16T14:02:32.403Z,19.51
2019-04-16T14:05:03.108Z,19.52
2019-04-16T14:07:27.909Z,19.52
2019-04-16T14:09:54.836Z,19.52
2019-04-16T14:12:27.994Z,19.53
2019-04-16T14:14:50.357Z,19.52
2019-04-16T14:17:18.953Z,19.53
2019-04-16T14:19:45.866Z,19.53
2019-04-16T14:22:12.768Z,19.54
2019-04-16T14:24:39.712Z,19.53
2019-04-16T14:27:06.710Z,19.55
2019-04-16T14:29:35.841Z,19.54
2019-04-16T14:32:02.203Z,19.54
2019-04-16T14:34:33.697Z,19.54
2019-04-16T14:37:00.619Z,19.55
2019-04-16T14:39:41.432Z,19.55
2019-04-16T14:42:08.438Z,19.56
2019-04-16T14:44:36.927Z,19.56
2019-04-16T14:47:03.832Z,19.55
2019-04-16T14:49:30.769Z,19.56
2019-04-16T14:52:01.991Z,19.57
2019-04-16T14:54:32.525Z,19.57
2019-04-16T14:57:01.331Z,19.58
2019-04-16T14:59:35.672Z,19.58
2019-04-16T15:02:04.315Z,19.59
2019-04-16T15:04:49.485Z,19.59
2019-04-16T15:07:30.287Z,19.59
2019-04-16T15:10:02.902Z,19.59
2019-04-16T15:12:40.703Z,19.59
2019-04-16T15:15:11.728Z,19.59
2019-04-16T15:17:42.461Z,19.60
2019-04-16T15:20:26.203Z,19.60
2019-04-16T15:23:11.038Z,19.60
2019-04-16T15:25:39.623Z,19.61
2019-04-16T15:28:08.180Z,19.61
2019-04-16T15:30:42.688Z,19.61
2019-04-16T15:33:29.330Z,19.62
2019-04-16T15:36:00.600Z,19.62
2019-04-16T15:38:32.134Z,19.63
2019-04-16T15:41:17.531Z,19.63
2019-04-16T15:44:02.771Z,19.60
2019-04-16T15:46:49.806Z,19.61
2019-04-16T15:49:19.467Z,19.65
2019-04-16T15:52:08.764Z,19.63
2019-04-16T15:54:51.670Z,19.62
2019-04-16T15:57:38.519Z,19.64
2019-04-16T16:00:07.055Z,19.64
2019-04-16T16:02:38.298Z,19.62
2019-04-16T16:05:23.065Z,19.62
2019-04-16T16:07:56.033Z,19.62
2019-04-16T16:10:24.727Z,19.63
2019-04-16T16:12:53.617Z,19.62
2019-04-16T16:15:20.214Z,19.62
2019-04-16T16:17:47.139Z,19.62
2019-04-16T16:20:14.054Z,19.63
2019-04-16T16:22:40.975Z,19.63
2019-04-16T16:25:08.012Z,19.63
2019-04-16T16:27:34.925Z,19.62
2019-04-16T16:30:01.847Z,19.63
2019-04-16T16:32:28.743Z,19.62
2019-04-16T16:34:55.677Z,19.63
2019-04-16T16:37:22.589Z,19.63
2019-04-16T16:39:49.500Z,19.63
2019-04-16T16:42:16.422Z,19.62
2019-04-16T16:44:43.325Z,19.63
2019-04-16T16:47:28.248Z,19.62
2019-04-16T16:49:55.198Z,19.63
2019-04-16T16:52:38.970Z,19.63
2019-04-16T16:55:07.592Z,19.62
2019-04-16T16:57:36.163Z,19.62
2019-04-16T17:00:07.479Z,19.63
2019-04-16T17:02:38.979Z,19.62
2019-04-16T17:05:07.523Z,19.62
2019-04-16T17:07:34.449Z,19.62
2019-04-16T17:10:01.442Z,19.62
2019-04-16T17:12:28.364Z,19.61
2019-04-16T17:14:55.278Z,19.61
2019-04-16T17:17:22.204Z,19.61
2019-04-16T17:19:50.857Z,19.60
2019-04-16T17:22:18.220Z,19.61
2019-04-16T17:24:45.175Z,19.62
2019-04-16T17:27:12.081Z,19.61
2019-04-16T17:29:39.013Z,19.62
2019-04-16T17:32:05.923Z,19.62
2019-04-16T17:34:32.826Z,19.62
2019-04-16T17:36:59.899Z,19.62
2019-04-16T17:39:42.589Z,19.61
2019-04-16T17:42:10.652Z,19.62
2019-04-16T17:44:48.212Z,19.61
2019-04-16T17:47:32.391Z,19.61
2019-04-16T17:50:03.709Z,19.61
2019-04-16T17:52:31.759Z,19.61
2019-04-16T17:55:06.253Z,19.66
2019-04-16T17:57:37.988Z,19.67
2019-04-16T18:00:18.560Z,19.70
2019-04-16T18:03:05.299Z,19.72
2019-04-16T18:05:40.042Z,19.71
2019-04-16T18:08:23.575Z,19.71
2019-04-16T18:10:58.092Z,19.71
2019-04-16T18:13:31.957Z,19.70
2019-04-16T18:16:02.406Z,19.69
2019-04-16T18:18:43.270Z,19.70
2019-04-16T18:21:28.208Z,19.70
2019-04-16T18:24:09.054Z,19.41
2019-04-16T18:26:49.647Z,19.64
2019-04-16T18:29:31.690Z,19.66
2019-04-16T18:31:57.635Z,19.71
2019-04-16T18:34:40.233Z,19.79
2019-04-16T18:37:24.894Z,19.80
2019-04-16T18:40:10.032Z,19.78
2019-04-16T18:42:55.052Z,19.77
2019-04-16T18:45:29.628Z,19.76
2019-04-16T18:48:04.597Z,19.76
2019-04-16T18:50:30.819Z,19.76
2019-04-16T18:52:57.757Z,19.75
2019-04-16T18:55:24.656Z,19.76
2019-04-16T18:57:51.583Z,19.74
2019-04-16T19:00:28.770Z,19.75
2019-04-16T19:02:54.435Z,19.74
2019-04-16T19:05:21.375Z,19.75
2019-04-16T19:07:48.295Z,19.76
2019-04-16T19:10:16.269Z,19.75
2019-04-16T19:12:43.210Z,19.76
2019-04-16T19:15:10.104Z,19.76
2019-04-16T19:17:37.015Z,19.75
2019-04-16T19:20:04.935Z,19.76
2019-04-16T19:22:32.292Z,19.76
2019-04-16T19:24:59.209Z,19.76
2019-04-16T19:27:27.906Z,19.76
2019-04-16T19:29:54.755Z,19.76
2019-04-16T19:32:24.851Z,19.77
2019-04-16T19:34:50.322Z,19.76
2019-04-16T19:37:17.274Z,19.75
2019-04-16T19:39:46.642Z,19.77
2019-04-16T19:42:12.755Z,19.76
2019-04-16T19:44:40.539Z,19.76
2019-04-16T19:47:07.798Z,19.76
2019-04-16T19:49:35.008Z,19.76
2019-04-16T19:52:02.006Z,19.76
2019-04-16T19:54:31.681Z,19.76
2019-04-16T19:56:57.950Z,19.76
2019-04-16T19:59:25.056Z,19.76
2019-04-16T20:01:55.918Z,19.76
2019-04-16T20:04:20.837Z,19.76
2019-04-16T20:06:47.964Z,19.76
2019-04-16T20:09:15.039Z,19.76
2019-04-16T20:11:42.112Z,19.77
2019-04-16T20:14:09.037Z,19.76
2019-04-16T20:16:35.943Z,19.76
2019-04-16T20:19:02.949Z,19.77
2019-04-16T20:21:29.917Z,19.78
2019-04-16T20:23:56.937Z,19.76
2019-04-16T20:26:23.868Z,19.77
2019-04-16T20:28:52.129Z,19.76
2019-04-16T20:31:19.032Z,19.77
2019-04-16T20:33:45.983Z,19.77
2019-04-16T20:36:12.939Z,19.77
2019-04-16T20:38:39.837Z,19.76
2019-04-16T20:41:06.756Z,19.77
2019-04-16T20:43:33.689Z,19.76
2019-04-16T20:46:00.648Z,19.77
2019-04-16T20:48:27.553Z,19.77
2019-04-16T20:50:58.849Z,19.77
2019-04-16T20:53:23.107Z,19.77
2019-04-16T20:55:50.060Z,19.77
2019-04-16T20:58:16.991Z,19.77
2019-04-16T21:03:35.930Z,19.77
2019-04-16T21:06:07.139Z,19.76
2019-04-16T21:08:31.451Z,19.77
2019-04-16T21:10:59.811Z,19.77
2019-04-16T21:13:26.956Z,19.77
2019-04-16T21:15:53.976Z,19.77
2019-04-16T21:18:22.425Z,19.77
2019-04-16T21:20:51.107Z,19.77
2019-04-16T21:23:18.102Z,19.78
2019-04-16T21:25:45.987Z,19.79
2019-04-16T21:28:15.193Z,19.82
2019-04-16T21:30:43.507Z,19.84
2019-04-16T21:33:28.847Z,19.82
2019-04-16T21:36:03.136Z,19.80
2019-04-16T21:38:30.685Z,19.79
2019-04-16T21:40:57.836Z,19.78
2019-04-16T21:43:24.708Z,19.78
2019-04-16T21:45:51.613Z,19.77
2019-04-16T21:48:18.542Z,19.78
2019-04-16T21:50:47.584Z,19.77
2019-04-16T21:53:14.003Z,19.77
2019-04-16T21:55:40.913Z,19.77
2019-04-16T21:58:07.820Z,19.77
2019-04-16T22:00:39.400Z,19.77
2019-04-16T22:03:20.116Z,19.77
2019-04-16T22:05:48.349Z,19.76
2019-04-16T22:08:15.580Z,19.76
2019-04-16T22:10:42.493Z,19.76
2019-04-16T22:13:09.397Z,19.76
2019-04-16T22:15:36.322Z,19.76
2019-04-16T22:18:07.549Z,19.76
2019-04-16T22:20:35.590Z,19.76
2019-04-16T22:23:00.740Z,19.76
2019-04-16T22:25:28.201Z,19.76
2019-04-16T22:27:55.135Z,19.75
2019-04-16T22:30:22.039Z,19.76
2019-04-16T22:32:48.950Z,19.76
2019-04-16T22:35:15.856Z,19.75
2019-04-16T22:37:42.761Z,19.75
2019-04-16T22:40:11.330Z,19.75
2019-04-16T22:42:45.564Z,19.75
2019-04-16T22:45:22.980Z,19.74
2019-04-16T22:47:51.598Z,19.74
2019-04-16T22:50:18.459Z,19.74
2019-04-16T22:52:46.148Z,19.74
2019-04-16T22:55:13.096Z,19.74
2019-04-16T22:57:40.024Z,19.74
2019-04-16T23:00:11.475Z,19.74
2019-04-16T23:02:37.129Z,19.74
2019-04-16T23:05:04.042Z,19.74
2019-04-16T23:07:30.933Z,19.73
2019-04-16T23:09:57.862Z,19.74
2019-04-16T23:12:28.039Z,19.73
2019-04-16T23:14:53.315Z,19.74
2019-04-16T23:17:21.863Z,19.73
2019-04-16T23:19:51.699Z,19.73
2019-04-16T23:22:17.372Z,19.73
2019-04-16T23:24:44.280Z,19.73
2019-04-16T23:27:11.208Z,19.72
2019-04-16T23:29:38.119Z,19.73
2019-04-16T23:32:05.048Z,19.72
2019-04-16T23:34:34.883Z,19.73
2019-04-16T23:37:00.532Z,19.74
2019-04-16T23:39:27.459Z,19.73
2019-04-16T23:41:54.364Z,19.74
2019-04-16T23:44:34.704Z,19.74
2019-04-16T23:47:19.515Z,19.72
2019-04-16T23:49:50.852Z,19.73
2019-04-16T23:52:22.124Z,19.73
2019-04-16T23:54:50.693Z,19.72
2019-04-16T23:57:37.352Z,19.73
